sensor_id;sensor_type;location;lat;lon;timestamp;temperature;humidity
68804;SHT31;55787;52.678;13.314;2024-01-06T00:00:07;0.62;98.83
68804;SHT31;55787;52.678;13.314;2024-01-06T00:02:34;0.66;98.79
68804;SHT31;55787;52.678;13.314;2024-01-06T00:05:00;0.68;98.63
68804;SHT31;55787;52.678;13.314;2024-01-06T00:07:27;0.68;98.43
68804;SHT31;55787;52.678;13.314;2024-01-06T00:09:53;0.58;98.55
68804;SHT31;55787;52.678;13.314;2024-01-06T00:12:20;0.55;99.00
68804;SHT31;55787;52.678;13.314;2024-01-06T00:14:47;0.59;98.64
68804;SHT31;55787;52.678;13.314;2024-01-06T00:17:15;0.59;98.82
68804;SHT31;55787;52.678;13.314;2024-01-06T00:19:42;0.62;98.76
68804;SHT31;55787;52.678;13.314;2024-01-06T00:22:09;0.63;98.54
68804;SHT31;55787;52.678;13.314;2024-01-06T00:24:36;0.60;98.57
68804;SHT31;55787;52.678;13.314;2024-01-06T00:27:02;0.60;98.67
68804;SHT31;55787;52.678;13.314;2024-01-06T00:29:29;0.60;98.62
68804;SHT31;55787;52.678;13.314;2024-01-06T00:31:56;0.62;98.53
68804;SHT31;55787;52.678;13.314;2024-01-06T00:34:22;0.58;98.61
68804;SHT31;55787;52.678;13.314;2024-01-06T00:36:49;0.62;98.56
68804;SHT31;55787;52.678;13.314;2024-01-06T00:39:16;0.58;98.74
68804;SHT31;55787;52.678;13.314;2024-01-06T00:41:42;0.52;98.88
68804;SHT31;55787;52.678;13.314;2024-01-06T00:44:09;0.52;98.80
68804;SHT31;55787;52.678;13.314;2024-01-06T00:46:35;0.55;98.94
68804;SHT31;55787;52.678;13.314;2024-01-06T00:49:02;0.59;98.66
68804;SHT31;55787;52.678;13.314;2024-01-06T00:51:30;0.58;98.73
68804;SHT31;55787;52.678;13.314;2024-01-06T00:53:57;0.56;98.63
68804;SHT31;55787;52.678;13.314;2024-01-06T00:56:23;0.62;98.38
68804;SHT31;55787;52.678;13.314;2024-01-06T00:58:50;0.53;98.49
68804;SHT31;55787;52.678;13.314;2024-01-06T01:01:17;0.55;98.68
68804;SHT31;55787;52.678;13.314;2024-01-06T01:03:44;0.60;98.43
68804;SHT31;55787;52.678;13.314;2024-01-06T01:06:10;0.55;98.59
68804;SHT31;55787;52.678;13.314;2024-01-06T01:08:37;0.56;98.54
68804;SHT31;55787;52.678;13.314;2024-01-06T01:11:04;0.62;98.46
68804;SHT31;55787;52.678;13.314;2024-01-06T01:13:31;0.59;98.43
68804;SHT31;55787;52.678;13.314;2024-01-06T01:15:57;0.58;98.09
68804;SHT31;55787;52.678;13.314;2024-01-06T01:18:24;0.53;98.45
68804;SHT31;55787;52.678;13.314;2024-01-06T01:20:51;0.50;98.76
68804;SHT31;55787;52.678;13.314;2024-01-06T01:23:17;0.55;98.55
68804;SHT31;55787;52.678;13.314;2024-01-06T01:25:44;0.50;98.69
68804;SHT31;55787;52.678;13.314;2024-01-06T01:28:10;0.55;99.17
68804;SHT31;55787;52.678;13.314;2024-01-06T01:30:37;0.52;98.98
68804;SHT31;55787;52.678;13.314;2024-01-06T01:33:04;0.50;98.75
68804;SHT31;55787;52.678;13.314;2024-01-06T01:35:30;0.62;98.57
68804;SHT31;55787;52.678;13.314;2024-01-06T01:37:57;0.55;98.28
68804;SHT31;55787;52.678;13.314;2024-01-06T01:40:24;0.55;98.57
68804;SHT31;55787;52.678;13.314;2024-01-06T01:42:50;0.50;98.73
68804;SHT31;55787;52.678;13.314;2024-01-06T01:45:17;0.46;98.81
68804;SHT31;55787;52.678;13.314;2024-01-06T01:47:43;0.53;98.79
68804;SHT31;55787;52.678;13.314;2024-01-06T01:50:12;0.52;98.52
68804;SHT31;55787;52.678;13.314;2024-01-06T01:52:41;0.59;98.46
68804;SHT31;55787;52.678;13.314;2024-01-06T01:55:08;0.53;98.41
68804;SHT31;55787;52.678;13.314;2024-01-06T01:57:35;0.53;98.28
68804;SHT31;55787;52.678;13.314;2024-01-06T02:00:02;0.56;98.12
68804;SHT31;55787;52.678;13.314;2024-01-06T02:02:29;0.53;98.50
68804;SHT31;55787;52.678;13.314;2024-01-06T02:04:56;0.50;98.47
68804;SHT31;55787;52.678;13.314;2024-01-06T02:07:23;0.53;98.58
68804;SHT31;55787;52.678;13.314;2024-01-06T02:09:49;0.52;99.04
68804;SHT31;55787;52.678;13.314;2024-01-06T02:12:16;0.49;98.80
68804;SHT31;55787;52.678;13.314;2024-01-06T02:14:43;0.53;98.74
68804;SHT31;55787;52.678;13.314;2024-01-06T02:17:09;0.49;98.65
68804;SHT31;55787;52.678;13.314;2024-01-06T02:19:36;0.55;98.84
68804;SHT31;55787;52.678;13.314;2024-01-06T02:22:03;0.52;98.80
68804;SHT31;55787;52.678;13.314;2024-01-06T02:24:29;0.50;98.98
68804;SHT31;55787;52.678;13.314;2024-01-06T02:26:56;0.52;99.02
68804;SHT31;55787;52.678;13.314;2024-01-06T02:29:23;0.48;98.85
68804;SHT31;55787;52.678;13.314;2024-01-06T02:31:49;0.48;99.02
68804;SHT31;55787;52.678;13.314;2024-01-06T02:34:16;0.48;98.71
68804;SHT31;55787;52.678;13.314;2024-01-06T02:36:42;0.48;98.85
68804;SHT31;55787;52.678;13.314;2024-01-06T02:39:09;0.56;98.55
68804;SHT31;55787;52.678;13.314;2024-01-06T02:41:36;0.53;98.54
68804;SHT31;55787;52.678;13.314;2024-01-06T02:44:03;0.50;98.73
68804;SHT31;55787;52.678;13.314;2024-01-06T02:46:30;0.53;98.70
68804;SHT31;55787;52.678;13.314;2024-01-06T02:48:57;0.53;98.55
68804;SHT31;55787;52.678;13.314;2024-01-06T02:51:23;0.52;98.50
68804;SHT31;55787;52.678;13.314;2024-01-06T02:53:50;0.55;98.40
68804;SHT31;55787;52.678;13.314;2024-01-06T02:56:17;0.53;98.40
68804;SHT31;55787;52.678;13.314;2024-01-06T02:58:43;0.52;98.51
68804;SHT31;55787;52.678;13.314;2024-01-06T03:01:11;0.52;98.57
68804;SHT31;55787;52.678;13.314;2024-01-06T03:03:38;0.53;98.57
68804;SHT31;55787;52.678;13.314;2024-01-06T03:06:05;0.53;98.49
68804;SHT31;55787;52.678;13.314;2024-01-06T03:08:31;0.50;98.61
68804;SHT31;55787;52.678;13.314;2024-01-06T03:10:58;0.44;98.71
68804;SHT31;55787;52.678;13.314;2024-01-06T03:13:24;0.52;98.75
68804;SHT31;55787;52.678;13.314;2024-01-06T03:15:51;0.52;98.18
68804;SHT31;55787;52.678;13.314;2024-01-06T03:18:18;0.45;98.50
68804;SHT31;55787;52.678;13.314;2024-01-06T03:20:44;0.44;98.89
68804;SHT31;55787;52.678;13.314;2024-01-06T03:23:11;0.44;98.93
68804;SHT31;55787;52.678;13.314;2024-01-06T03:25:38;0.42;98.82
68804;SHT31;55787;52.678;13.314;2024-01-06T03:28:04;0.46;98.73
68804;SHT31;55787;52.678;13.314;2024-01-06T03:30:31;0.48;98.86
68804;SHT31;55787;52.678;13.314;2024-01-06T03:32:58;0.50;98.64
68804;SHT31;55787;52.678;13.314;2024-01-06T03:35:24;0.48;98.56
68804;SHT31;55787;52.678;13.314;2024-01-06T03:37:51;0.48;98.69
68804;SHT31;55787;52.678;13.314;2024-01-06T03:40:18;0.49;98.57
68804;SHT31;55787;52.678;13.314;2024-01-06T03:42:44;0.53;98.51
68804;SHT31;55787;52.678;13.314;2024-01-06T03:45:11;0.45;98.63
68804;SHT31;55787;52.678;13.314;2024-01-06T03:47:38;0.46;98.72
68804;SHT31;55787;52.678;13.314;2024-01-06T03:50:05;0.46;98.71
68804;SHT31;55787;52.678;13.314;2024-01-06T03:52:32;0.52;98.46
68804;SHT31;55787;52.678;13.314;2024-01-06T03:54:59;0.46;98.62
68804;SHT31;55787;52.678;13.314;2024-01-06T03:57:25;0.44;98.36
68804;SHT31;55787;52.678;13.314;2024-01-06T03:59:52;0.42;98.48
68804;SHT31;55787;52.678;13.314;2024-01-06T04:02:19;0.45;98.55
68804;SHT31;55787;52.678;13.314;2024-01-06T04:04:45;0.42;98.64
68804;SHT31;55787;52.678;13.314;2024-01-06T04:07:13;0.42;98.93
68804;SHT31;55787;52.678;13.314;2024-01-06T04:09:42;0.42;98.95
68804;SHT31;55787;52.678;13.314;2024-01-06T04:12:09;0.44;98.58
68804;SHT31;55787;52.678;13.314;2024-01-06T04:14:35;0.39;98.67
68804;SHT31;55787;52.678;13.314;2024-01-06T04:17:02;0.38;98.66
68804;SHT31;55787;52.678;13.314;2024-01-06T04:19:28;0.39;98.69
68804;SHT31;55787;52.678;13.314;2024-01-06T04:21:55;0.41;98.68
68804;SHT31;55787;52.678;13.314;2024-01-06T04:24:22;0.37;98.79
68804;SHT31;55787;52.678;13.314;2024-01-06T04:26:49;0.32;99.12
68804;SHT31;55787;52.678;13.314;2024-01-06T04:29:16;0.35;99.33
68804;SHT31;55787;52.678;13.314;2024-01-06T04:31:42;0.41;98.99
68804;SHT31;55787;52.678;13.314;2024-01-06T04:34:09;0.35;99.05
68804;SHT31;55787;52.678;13.314;2024-01-06T04:36:36;0.38;99.04
68804;SHT31;55787;52.678;13.314;2024-01-06T04:39:02;0.39;98.84
68804;SHT31;55787;52.678;13.314;2024-01-06T04:41:29;0.38;98.85
68804;SHT31;55787;52.678;13.314;2024-01-06T04:43:56;0.41;98.71
68804;SHT31;55787;52.678;13.314;2024-01-06T04:46:23;0.38;98.75
68804;SHT31;55787;52.678;13.314;2024-01-06T04:48:50;0.33;98.98
68804;SHT31;55787;52.678;13.314;2024-01-06T04:51:17;0.29;99.00
68804;SHT31;55787;52.678;13.314;2024-01-06T04:53:44;0.31;99.36
68804;SHT31;55787;52.678;13.314;2024-01-06T04:56:10;0.35;99.19
68804;SHT31;55787;52.678;13.314;2024-01-06T04:58:37;0.32;99.07
68804;SHT31;55787;52.678;13.314;2024-01-06T05:01:03;0.31;99.16
68804;SHT31;55787;52.678;13.314;2024-01-06T05:03:31;0.25;99.39
68804;SHT31;55787;52.678;13.314;2024-01-06T05:05:57;0.26;99.49
68804;SHT31;55787;52.678;13.314;2024-01-06T05:08:24;0.24;99.63
68804;SHT31;55787;52.678;13.314;2024-01-06T05:10:53;0.29;99.61
68804;SHT31;55787;52.678;13.314;2024-01-06T05:13:20;0.26;99.47
68804;SHT31;55787;52.678;13.314;2024-01-06T05:15:47;0.28;99.58
68804;SHT31;55787;52.678;13.314;2024-01-06T05:18:14;0.25;99.74
68804;SHT31;55787;52.678;13.314;2024-01-06T05:20:40;0.29;99.51
68804;SHT31;55787;52.678;13.314;2024-01-06T05:23:07;0.21;99.62
68804;SHT31;55787;52.678;13.314;2024-01-06T05:25:34;0.25;99.96
68804;SHT31;55787;52.678;13.314;2024-01-06T05:28:00;0.29;99.59
68804;SHT31;55787;52.678;13.314;2024-01-06T05:30:27;0.29;99.56
68804;SHT31;55787;52.678;13.314;2024-01-06T05:32:54;0.26;99.65
68804;SHT31;55787;52.678;13.314;2024-01-06T05:35:21;0.28;99.57
68804;SHT31;55787;52.678;13.314;2024-01-06T05:37:47;0.22;99.62
68804;SHT31;55787;52.678;13.314;2024-01-06T05:40:14;0.24;99.74
68804;SHT31;55787;52.678;13.314;2024-01-06T05:42:41;0.24;99.43
68804;SHT31;55787;52.678;13.314;2024-01-06T05:45:11;0.22;99.44
68804;SHT31;55787;52.678;13.314;2024-01-06T05:47:39;0.18;99.57
68804;SHT31;55787;52.678;13.314;2024-01-06T05:50:06;0.18;99.98
68804;SHT31;55787;52.678;13.314;2024-01-06T05:52:36;0.18;99.99
68804;SHT31;55787;52.678;13.314;2024-01-06T05:55:04;0.19;99.85
68804;SHT31;55787;52.678;13.314;2024-01-06T05:57:31;0.18;99.89
68804;SHT31;55787;52.678;13.314;2024-01-06T05:59:58;0.22;99.87
68804;SHT31;55787;52.678;13.314;2024-01-06T06:02:25;0.17;99.62
68804;SHT31;55787;52.678;13.314;2024-01-06T06:04:52;0.15;99.92
68804;SHT31;55787;52.678;13.314;2024-01-06T06:07:19;0.21;99.99
68804;SHT31;55787;52.678;13.314;2024-01-06T06:09:46;0.18;99.70
68804;SHT31;55787;52.678;13.314;2024-01-06T06:12:14;0.18;99.73
68804;SHT31;55787;52.678;13.314;2024-01-06T06:14:40;0.21;99.84
68804;SHT31;55787;52.678;13.314;2024-01-06T06:17:07;0.21;99.66
68804;SHT31;55787;52.678;13.314;2024-01-06T06:19:34;0.19;99.64
68804;SHT31;55787;52.678;13.314;2024-01-06T06:22:00;0.15;99.99
68804;SHT31;55787;52.678;13.314;2024-01-06T06:24:27;0.14;99.72
68804;SHT31;55787;52.678;13.314;2024-01-06T06:26:54;0.15;99.78
68804;SHT31;55787;52.678;13.314;2024-01-06T06:29:20;0.17;99.87
68804;SHT31;55787;52.678;13.314;2024-01-06T06:31:47;0.11;99.67
68804;SHT31;55787;52.678;13.314;2024-01-06T06:34:15;0.12;99.53
68804;SHT31;55787;52.678;13.314;2024-01-06T06:36:42;0.08;99.63
68804;SHT31;55787;52.678;13.314;2024-01-06T06:39:09;0.08;99.53
68804;SHT31;55787;52.678;13.314;2024-01-06T06:41:35;0.11;99.63
68804;SHT31;55787;52.678;13.314;2024-01-06T06:44:02;0.08;99.87
68804;SHT31;55787;52.678;13.314;2024-01-06T06:46:29;0.17;99.68
68804;SHT31;55787;52.678;13.314;2024-01-06T06:48:55;0.11;99.47
68804;SHT31;55787;52.678;13.314;2024-01-06T06:51:22;0.12;99.50
68804;SHT31;55787;52.678;13.314;2024-01-06T06:53:51;0.09;99.24
68804;SHT31;55787;52.678;13.314;2024-01-06T06:56:18;0.05;99.24
68804;SHT31;55787;52.678;13.314;2024-01-06T06:58:45;0.04;99.09
68804;SHT31;55787;52.678;13.314;2024-01-06T07:01:16;0.00;99.12
68804;SHT31;55787;52.678;13.314;2024-01-06T07:03:43;-0.06;99.23
68804;SHT31;55787;52.678;13.314;2024-01-06T07:06:13;-0.02;99.44
68804;SHT31;55787;52.678;13.314;2024-01-06T07:08:40;-0.05;99.27
68804;SHT31;55787;52.678;13.314;2024-01-06T07:11:08;-0.05;99.11
68804;SHT31;55787;52.678;13.314;2024-01-06T07:13:35;-0.10;99.33
68804;SHT31;55787;52.678;13.314;2024-01-06T07:16:02;-0.06;99.03
68804;SHT31;55787;52.678;13.314;2024-01-06T07:18:43;-0.13;99.23
68804;SHT31;55787;52.678;13.314;2024-01-06T07:21:12;-0.07;99.12
68804;SHT31;55787;52.678;13.314;2024-01-06T07:23:39;-0.06;98.85
68804;SHT31;55787;52.678;13.314;2024-01-06T07:26:05;-0.12;98.90
68804;SHT31;55787;52.678;13.314;2024-01-06T07:28:33;-0.12;99.01
68804;SHT31;55787;52.678;13.314;2024-01-06T07:31:00;-0.13;98.93
68804;SHT31;55787;52.678;13.314;2024-01-06T07:33:27;-0.13;99.17
68804;SHT31;55787;52.678;13.314;2024-01-06T07:35:54;-0.16;99.44
68804;SHT31;55787;52.678;13.314;2024-01-06T07:38:20;-0.13;99.36
68804;SHT31;55787;52.678;13.314;2024-01-06T07:40:47;-0.12;99.09
68804;SHT31;55787;52.678;13.314;2024-01-06T07:43:13;-0.12;99.10
68804;SHT31;55787;52.678;13.314;2024-01-06T07:45:41;-0.12;99.13
68804;SHT31;55787;52.678;13.314;2024-01-06T07:48:08;-0.14;99.17
68804;SHT31;55787;52.678;13.314;2024-01-06T07:50:35;-0.14;98.93
68804;SHT31;55787;52.678;13.314;2024-01-06T07:53:01;-0.14;98.98
68804;SHT31;55787;52.678;13.314;2024-01-06T07:55:28;-0.12;99.00
68804;SHT31;55787;52.678;13.314;2024-01-06T07:57:55;-0.12;98.77
68804;SHT31;55787;52.678;13.314;2024-01-06T08:00:22;-0.10;98.87
68804;SHT31;55787;52.678;13.314;2024-01-06T08:02:48;-0.19;98.62
68804;SHT31;55787;52.678;13.314;2024-01-06T08:05:15;-0.20;98.93
68804;SHT31;55787;52.678;13.314;2024-01-06T08:07:42;-0.17;98.94
68804;SHT31;55787;52.678;13.314;2024-01-06T08:10:08;-0.17;98.66
68804;SHT31;55787;52.678;13.314;2024-01-06T08:12:35;-0.17;98.77
68804;SHT31;55787;52.678;13.314;2024-01-06T08:15:02;-0.16;98.94
68804;SHT31;55787;52.678;13.314;2024-01-06T08:17:29;-0.14;99.07
68804;SHT31;55787;52.678;13.314;2024-01-06T08:19:56;-0.13;98.55
68804;SHT31;55787;52.678;13.314;2024-01-06T08:22:22;-0.13;98.60
68804;SHT31;55787;52.678;13.314;2024-01-06T08:24:49;-0.14;98.64
68804;SHT31;55787;52.678;13.314;2024-01-06T08:27:16;-0.13;98.60
68804;SHT31;55787;52.678;13.314;2024-01-06T08:29:42;-0.13;98.48
68804;SHT31;55787;52.678;13.314;2024-01-06T08:32:09;-0.07;98.70
68804;SHT31;55787;52.678;13.314;2024-01-06T08:34:37;-0.10;98.16
68804;SHT31;55787;52.678;13.314;2024-01-06T08:37:04;-0.09;98.03
68804;SHT31;55787;52.678;13.314;2024-01-06T08:39:31;-0.16;97.95
68804;SHT31;55787;52.678;13.314;2024-01-06T08:41:58;-0.20;98.30
68804;SHT31;55787;52.678;13.314;2024-01-06T08:44:27;-0.19;98.05
68804;SHT31;55787;52.678;13.314;2024-01-06T08:46:54;-0.17;98.21
68804;SHT31;55787;52.678;13.314;2024-01-06T08:49:21;-0.19;98.35
68804;SHT31;55787;52.678;13.314;2024-01-06T08:51:49;-0.19;98.19
68804;SHT31;55787;52.678;13.314;2024-01-06T08:54:16;-0.17;97.98
68804;SHT31;55787;52.678;13.314;2024-01-06T08:56:43;-0.20;98.16
68804;SHT31;55787;52.678;13.314;2024-01-06T08:59:09;-0.17;98.00
68804;SHT31;55787;52.678;13.314;2024-01-06T09:01:36;-0.14;98.11
68804;SHT31;55787;52.678;13.314;2024-01-06T09:04:04;-0.16;97.86
68804;SHT31;55787;52.678;13.314;2024-01-06T09:06:31;-0.19;97.43
68804;SHT31;55787;52.678;13.314;2024-01-06T09:08:58;-0.17;97.45
68804;SHT31;55787;52.678;13.314;2024-01-06T09:11:24;-0.20;97.54
68804;SHT31;55787;52.678;13.314;2024-01-06T09:13:51;-0.19;98.13
68804;SHT31;55787;52.678;13.314;2024-01-06T09:16:19;-0.24;97.68
68804;SHT31;55787;52.678;13.314;2024-01-06T09:18:46;-0.21;97.76
68804;SHT31;55787;52.678;13.314;2024-01-06T09:21:13;-0.21;97.72
68804;SHT31;55787;52.678;13.314;2024-01-06T09:23:40;-0.20;97.39
68804;SHT31;55787;52.678;13.314;2024-01-06T09:26:06;-0.20;97.15
68804;SHT31;55787;52.678;13.314;2024-01-06T09:28:33;-0.20;97.27
68804;SHT31;55787;52.678;13.314;2024-01-06T09:30:59;-0.19;97.42
68804;SHT31;55787;52.678;13.314;2024-01-06T09:33:26;-0.20;97.05
68804;SHT31;55787;52.678;13.314;2024-01-06T09:35:53;-0.19;97.25
68804;SHT31;55787;52.678;13.314;2024-01-06T09:38:20;-0.21;97.62
68804;SHT31;55787;52.678;13.314;2024-01-06T09:40:48;-0.21;97.51
68804;SHT31;55787;52.678;13.314;2024-01-06T09:43:15;-0.20;97.13
68804;SHT31;55787;52.678;13.314;2024-01-06T09:45:42;-0.20;97.19
68804;SHT31;55787;52.678;13.314;2024-01-06T09:48:11;-0.16;97.09
68804;SHT31;55787;52.678;13.314;2024-01-06T09:50:43;-0.23;96.77
68804;SHT31;55787;52.678;13.314;2024-01-06T09:53:11;-0.23;96.84
68804;SHT31;55787;52.678;13.314;2024-01-06T09:55:38;-0.17;96.53
68804;SHT31;55787;52.678;13.314;2024-01-06T09:58:05;-0.21;96.42
68804;SHT31;55787;52.678;13.314;2024-01-06T10:00:36;-0.24;96.83
68804;SHT31;55787;52.678;13.314;2024-01-06T10:03:04;-0.24;97.03
68804;SHT31;55787;52.678;13.314;2024-01-06T10:05:30;-0.19;96.91
68804;SHT31;55787;52.678;13.314;2024-01-06T10:07:57;-0.14;96.21
68804;SHT31;55787;52.678;13.314;2024-01-06T10:10:25;-0.26;96.69
68804;SHT31;55787;52.678;13.314;2024-01-06T10:12:53;-0.23;96.30
68804;SHT31;55787;52.678;13.314;2024-01-06T10:15:21;-0.21;96.52
68804;SHT31;55787;52.678;13.314;2024-01-06T10:17:48;-0.21;96.63
68804;SHT31;55787;52.678;13.314;2024-01-06T10:20:15;-0.17;96.77
68804;SHT31;55787;52.678;13.314;2024-01-06T10:22:44;-0.16;96.39
68804;SHT31;55787;52.678;13.314;2024-01-06T10:25:11;-0.19;96.79
68804;SHT31;55787;52.678;13.314;2024-01-06T10:27:39;-0.20;96.77
68804;SHT31;55787;52.678;13.314;2024-01-06T10:30:07;-0.23;96.87
68804;SHT31;55787;52.678;13.314;2024-01-06T10:32:35;-0.24;96.87
68804;SHT31;55787;52.678;13.314;2024-01-06T10:35:05;-0.24;96.20
68804;SHT31;55787;52.678;13.314;2024-01-06T10:37:36;-0.24;96.53
68804;SHT31;55787;52.678;13.314;2024-01-06T10:40:11;-0.21;96.18
68804;SHT31;55787;52.678;13.314;2024-01-06T10:42:39;-0.23;96.04
68804;SHT31;55787;52.678;13.314;2024-01-06T10:45:08;-0.23;96.17
68804;SHT31;55787;52.678;13.314;2024-01-06T10:47:36;-0.24;95.89
68804;SHT31;55787;52.678;13.314;2024-01-06T10:50:04;-0.33;96.06
68804;SHT31;55787;52.678;13.314;2024-01-06T10:52:31;-0.23;96.53
68804;SHT31;55787;52.678;13.314;2024-01-06T10:54:58;-0.24;95.80
68804;SHT31;55787;52.678;13.314;2024-01-06T10:57:25;-0.24;96.23
68804;SHT31;55787;52.678;13.314;2024-01-06T10:59:54;-0.26;96.36
68804;SHT31;55787;52.678;13.314;2024-01-06T11:02:22;-0.23;96.78
68804;SHT31;55787;52.678;13.314;2024-01-06T11:04:52;-0.16;96.03
68804;SHT31;55787;52.678;13.314;2024-01-06T11:07:20;-0.13;95.75
68804;SHT31;55787;52.678;13.314;2024-01-06T11:09:59;-0.13;95.82
68804;SHT31;55787;52.678;13.314;2024-01-06T11:12:29;-0.17;95.67
68804;SHT31;55787;52.678;13.314;2024-01-06T11:14:55;-0.23;96.14
68804;SHT31;55787;52.678;13.314;2024-01-06T11:17:54;-0.17;95.83
68804;SHT31;55787;52.678;13.314;2024-01-06T11:20:23;-0.14;96.03
68804;SHT31;55787;52.678;13.314;2024-01-06T11:22:50;-0.13;96.04
68804;SHT31;55787;52.678;13.314;2024-01-06T11:25:20;-0.17;96.18
68804;SHT31;55787;52.678;13.314;2024-01-06T11:27:49;-0.16;96.19
68804;SHT31;55787;52.678;13.314;2024-01-06T11:30:26;-0.14;95.76
68804;SHT31;55787;52.678;13.314;2024-01-06T11:32:56;-0.20;96.11
68804;SHT31;55787;52.678;13.314;2024-01-06T11:35:27;-0.21;96.13
68804;SHT31;55787;52.678;13.314;2024-01-06T11:37:55;-0.16;96.11
68804;SHT31;55787;52.678;13.314;2024-01-06T11:45:25;-0.13;95.18
68804;SHT31;55787;52.678;13.314;2024-01-06T11:47:55;-0.19;95.48
68804;SHT31;55787;52.678;13.314;2024-01-06T11:50:23;-0.19;95.86
68804;SHT31;55787;52.678;13.314;2024-01-06T11:52:50;-0.19;96.09
68804;SHT31;55787;52.678;13.314;2024-01-06T11:55:18;-0.20;95.89
68804;SHT31;55787;52.678;13.314;2024-01-06T11:57:45;-0.19;96.01
68804;SHT31;55787;52.678;13.314;2024-01-06T12:00:12;-0.21;95.90
68804;SHT31;55787;52.678;13.314;2024-01-06T12:02:42;-0.21;95.97
68804;SHT31;55787;52.678;13.314;2024-01-06T12:05:16;-0.21;95.78
68804;SHT31;55787;52.678;13.314;2024-01-06T12:07:56;-0.17;95.81
68804;SHT31;55787;52.678;13.314;2024-01-06T12:10:25;-0.14;95.13
68804;SHT31;55787;52.678;13.314;2024-01-06T12:12:56;-0.19;95.22
68804;SHT31;55787;52.678;13.314;2024-01-06T12:15:25;-0.19;95.57
68804;SHT31;55787;52.678;13.314;2024-01-06T12:17:52;-0.14;95.47
68804;SHT31;55787;52.678;13.314;2024-01-06T12:20:19;-0.12;95.47
68804;SHT31;55787;52.678;13.314;2024-01-06T12:22:45;-0.12;95.36
68804;SHT31;55787;52.678;13.314;2024-01-06T12:25:45;-0.16;95.32
68804;SHT31;55787;52.678;13.314;2024-01-06T12:28:15;-0.19;95.67
68804;SHT31;55787;52.678;13.314;2024-01-06T12:30:41;-0.19;95.27
68804;SHT31;55787;52.678;13.314;2024-01-06T12:33:10;-0.16;94.85
68804;SHT31;55787;52.678;13.314;2024-01-06T12:35:37;-0.20;94.84
68804;SHT31;55787;52.678;13.314;2024-01-06T12:38:05;-0.16;94.96
68804;SHT31;55787;52.678;13.314;2024-01-06T12:40:35;-0.12;94.88
68804;SHT31;55787;52.678;13.314;2024-01-06T12:43:06;-0.14;94.24
68804;SHT31;55787;52.678;13.314;2024-01-06T12:45:33;-0.19;94.43
68804;SHT31;55787;52.678;13.314;2024-01-06T12:48:00;-0.24;94.12
68804;SHT31;55787;52.678;13.314;2024-01-06T12:50:27;-0.21;93.98
68804;SHT31;55787;52.678;13.314;2024-01-06T12:52:54;-0.21;94.50
68804;SHT31;55787;52.678;13.314;2024-01-06T12:55:20;-0.26;94.65
68804;SHT31;55787;52.678;13.314;2024-01-06T12:57:47;-0.29;94.64
68804;SHT31;55787;52.678;13.314;2024-01-06T13:00:14;-0.27;94.73
68804;SHT31;55787;52.678;13.314;2024-01-06T13:02:41;-0.24;95.14
68804;SHT31;55787;52.678;13.314;2024-01-06T13:05:08;-0.23;95.45
68804;SHT31;55787;52.678;13.314;2024-01-06T13:07:36;-0.23;94.65
68804;SHT31;55787;52.678;13.314;2024-01-06T13:10:03;-0.23;94.97
68804;SHT31;55787;52.678;13.314;2024-01-06T13:12:29;-0.27;95.24
68804;SHT31;55787;52.678;13.314;2024-01-06T13:14:56;-0.26;94.86
68804;SHT31;55787;52.678;13.314;2024-01-06T13:17:23;-0.26;95.06
68804;SHT31;55787;52.678;13.314;2024-01-06T13:19:50;-0.23;94.83
68804;SHT31;55787;52.678;13.314;2024-01-06T13:22:17;-0.24;94.59
68804;SHT31;55787;52.678;13.314;2024-01-06T13:24:46;-0.29;94.62
68804;SHT31;55787;52.678;13.314;2024-01-06T13:27:16;-0.27;94.13
68804;SHT31;55787;52.678;13.314;2024-01-06T13:29:42;-0.29;94.22
68804;SHT31;55787;52.678;13.314;2024-01-06T13:32:09;-0.31;94.03
68804;SHT31;55787;52.678;13.314;2024-01-06T13:34:37;-0.37;94.32
68804;SHT31;55787;52.678;13.314;2024-01-06T13:37:04;-0.37;94.34
68804;SHT31;55787;52.678;13.314;2024-01-06T13:39:33;-0.38;95.29
68804;SHT31;55787;52.678;13.314;2024-01-06T13:42:00;-0.37;95.12
68804;SHT31;55787;52.678;13.314;2024-01-06T13:44:26;-0.40;95.24
68804;SHT31;55787;52.678;13.314;2024-01-06T13:46:53;-0.40;94.60
68804;SHT31;55787;52.678;13.314;2024-01-06T13:49:22;-0.41;94.49
68804;SHT31;55787;52.678;13.314;2024-01-06T13:51:49;-0.40;94.64
68804;SHT31;55787;52.678;13.314;2024-01-06T13:54:17;-0.38;93.97
68804;SHT31;55787;52.678;13.314;2024-01-06T13:56:46;-0.37;94.49
68804;SHT31;55787;52.678;13.314;2024-01-06T13:59:13;-0.45;94.29
68804;SHT31;55787;52.678;13.314;2024-01-06T14:01:39;-0.47;94.63
68804;SHT31;55787;52.678;13.314;2024-01-06T14:04:06;-0.53;95.10
68804;SHT31;55787;52.678;13.314;2024-01-06T14:06:33;-0.45;94.81
68804;SHT31;55787;52.678;13.314;2024-01-06T14:09:00;-0.49;93.95
68804;SHT31;55787;52.678;13.314;2024-01-06T14:11:27;-0.49;94.60
68804;SHT31;55787;52.678;13.314;2024-01-06T14:13:53;-0.49;94.45
68804;SHT31;55787;52.678;13.314;2024-01-06T14:16:20;-0.47;94.31
68804;SHT31;55787;52.678;13.314;2024-01-06T14:18:47;-0.45;94.43
68804;SHT31;55787;52.678;13.314;2024-01-06T14:21:14;-0.50;94.35
68804;SHT31;55787;52.678;13.314;2024-01-06T14:23:42;-0.49;94.98
68804;SHT31;55787;52.678;13.314;2024-01-06T14:26:08;-0.54;94.76
68804;SHT31;55787;52.678;13.314;2024-01-06T14:28:35;-0.53;94.25
68804;SHT31;55787;52.678;13.314;2024-01-06T14:31:02;-0.49;94.48
68804;SHT31;55787;52.678;13.314;2024-01-06T14:33:29;-0.50;94.33
68804;SHT31;55787;52.678;13.314;2024-01-06T14:35:56;-0.50;94.36
68804;SHT31;55787;52.678;13.314;2024-01-06T14:38:23;-0.47;93.85
68804;SHT31;55787;52.678;13.314;2024-01-06T14:40:49;-0.57;94.79
68804;SHT31;55787;52.678;13.314;2024-01-06T14:43:16;-0.53;94.38
68804;SHT31;55787;52.678;13.314;2024-01-06T14:45:42;-0.54;93.89
68804;SHT31;55787;52.678;13.314;2024-01-06T14:48:09;-0.56;93.98
68804;SHT31;55787;52.678;13.314;2024-01-06T14:50:37;-0.60;94.30
68804;SHT31;55787;52.678;13.314;2024-01-06T14:53:03;-0.57;94.43
68804;SHT31;55787;52.678;13.314;2024-01-06T14:55:30;-0.54;94.34
68804;SHT31;55787;52.678;13.314;2024-01-06T14:57:56;-0.58;94.86
68804;SHT31;55787;52.678;13.314;2024-01-06T15:00:23;-0.58;94.64
68804;SHT31;55787;52.678;13.314;2024-01-06T15:02:51;-0.62;94.74
68804;SHT31;55787;52.678;13.314;2024-01-06T15:05:18;-0.50;94.20
68804;SHT31;55787;52.678;13.314;2024-01-06T15:07:45;-0.56;94.30
68804;SHT31;55787;52.678;13.314;2024-01-06T15:10:12;-0.58;94.11
68804;SHT31;55787;52.678;13.314;2024-01-06T15:12:40;-0.57;94.17
68804;SHT31;55787;52.678;13.314;2024-01-06T15:15:07;-0.60;94.06
68804;SHT31;55787;52.678;13.314;2024-01-06T15:17:35;-0.60;94.28
68804;SHT31;55787;52.678;13.314;2024-01-06T15:20:04;-0.60;94.27
68804;SHT31;55787;52.678;13.314;2024-01-06T15:22:31;-0.58;93.65
68804;SHT31;55787;52.678;13.314;2024-01-06T15:24:58;-0.57;93.71
68804;SHT31;55787;52.678;13.314;2024-01-06T15:27:26;-0.57;93.56